Oatville, Kansas
Current Conditions -  °F | °C
As of 9:53 PM on Saturday 25 Oct 2014 (Local Time) from KICT Reporting Station
Clear Clear  
Wind Chill: 71°   Ceiling: Unl
Heat Index: 71°   Visibility: 10mi
Dew Point: 60°   Wind: 10mph
Humidity: 68%   Direction: 160°SSE
Pressure: 29.95"   Gusts: NA
Location:  37.6181°N, 97.4387°W
Report Text: KICT 260253Z 16009KT 10SM CLR 22/16 A2995 RMK AO2 SLP135 T02170156 57007
Loading
Personal Weather Stations






























Interactive Weather Map
Tropical Storm Tracking
New forecast layout! Learn more

10-Day Weather Forecast

Advertisements
Track Severe Weather on mobile